sensor_id;sensor_type;location;lat;lon;timestamp;P1;durP1;ratioP1;P2;durP2;ratioP2
85662;SDS011;76094;55.506;37.950;2024-02-21T00:01:26;12.45;;;6.95;;
85662;SDS011;76094;55.506;37.950;2024-02-21T00:03:53;12.50;;;5.50;;
85662;SDS011;76094;55.506;37.950;2024-02-21T00:06:19;12.15;;;6.68;;
85662;SDS011;76094;55.506;37.950;2024-02-21T00:08:45;12.43;;;6.80;;
85662;SDS011;76094;55.506;37.950;2024-02-21T00:11:11;11.95;;;6.90;;
85662;SDS011;76094;55.506;37.950;2024-02-21T00:13:38;11.68;;;6.45;;
85662;SDS011;76094;55.506;37.950;2024-02-21T00:16:04;14.23;;;7.28;;
85662;SDS011;76094;55.506;37.950;2024-02-21T00:18:30;14.43;;;7.20;;
85662;SDS011;76094;55.506;37.950;2024-02-21T04:24:26;12.85;;;7.68;;
85662;SDS011;76094;55.506;37.950;2024-02-21T04:26:53;13.60;;;7.30;;
85662;SDS011;76094;55.506;37.950;2024-02-21T04:29:19;14.73;;;8.23;;
85662;SDS011;76094;55.506;37.950;2024-02-21T04:31:45;16.40;;;8.43;;
85662;SDS011;76094;55.506;37.950;2024-02-21T04:34:12;16.98;;;8.88;;
85662;SDS011;76094;55.506;37.950;2024-02-21T04:36:38;18.48;;;8.85;;
85662;SDS011;76094;55.506;37.950;2024-02-21T04:39:04;15.55;;;8.68;;
85662;SDS011;76094;55.506;37.950;2024-02-21T04:41:31;13.75;;;7.72;;
85662;SDS011;76094;55.506;37.950;2024-02-21T04:43:57;13.90;;;8.15;;
85662;SDS011;76094;55.506;37.950;2024-02-21T04:46:23;21.08;;;8.68;;
85662;SDS011;76094;55.506;37.950;2024-02-21T04:48:49;18.98;;;8.05;;
85662;SDS011;76094;55.506;37.950;2024-02-21T04:51:16;17.48;;;8.23;;
85662;SDS011;76094;55.506;37.950;2024-02-21T04:53:42;15.60;;;8.30;;
85662;SDS011;76094;55.506;37.950;2024-02-21T04:56:08;17.23;;;8.35;;
85662;SDS011;76094;55.506;37.950;2024-02-21T04:58:38;16.05;;;8.40;;
85662;SDS011;76094;55.506;37.950;2024-02-21T05:01:05;12.48;;;8.20;;
85662;SDS011;76094;55.506;37.950;2024-02-21T05:03:32;15.10;;;8.15;;
85662;SDS011;76094;55.506;37.950;2024-02-21T05:05:58;16.10;;;8.68;;
85662;SDS011;76094;55.506;37.950;2024-02-21T05:08:25;20.25;;;8.32;;
85662;SDS011;76094;55.506;37.950;2024-02-21T05:10:51;18.30;;;8.93;;
85662;SDS011;76094;55.506;37.950;2024-02-21T05:13:17;19.30;;;8.95;;
85662;SDS011;76094;55.506;37.950;2024-02-21T05:15:44;21.73;;;8.98;;
85662;SDS011;76094;55.506;37.950;2024-02-21T05:18:10;16.25;;;8.40;;
85662;SDS011;76094;55.506;37.950;2024-02-21T05:20:36;15.85;;;9.15;;
85662;SDS011;76094;55.506;37.950;2024-02-21T05:23:02;19.15;;;8.02;;
85662;SDS011;76094;55.506;37.950;2024-02-21T05:25:29;14.02;;;8.63;;
85662;SDS011;76094;55.506;37.950;2024-02-21T05:27:55;11.80;;;7.05;;
85662;SDS011;76094;55.506;37.950;2024-02-21T05:30:22;16.50;;;9.02;;
85662;SDS011;76094;55.506;37.950;2024-02-21T05:32:48;13.15;;;8.05;;
85662;SDS011;76094;55.506;37.950;2024-02-21T05:35:14;15.32;;;8.18;;
85662;SDS011;76094;55.506;37.950;2024-02-21T05:37:40;13.35;;;7.45;;
85662;SDS011;76094;55.506;37.950;2024-02-21T05:40:07;14.65;;;8.93;;
85662;SDS011;76094;55.506;37.950;2024-02-21T05:42:33;16.10;;;9.10;;
85662;SDS011;76094;55.506;37.950;2024-02-21T05:44:59;18.40;;;8.45;;
85662;SDS011;76094;55.506;37.950;2024-02-21T05:47:26;15.27;;;7.88;;
85662;SDS011;76094;55.506;37.950;2024-02-21T05:49:52;14.52;;;8.68;;
85662;SDS011;76094;55.506;37.950;2024-02-21T05:52:20;16.40;;;8.57;;
85662;SDS011;76094;55.506;37.950;2024-02-21T05:54:46;16.88;;;9.07;;
85662;SDS011;76094;55.506;37.950;2024-02-21T05:57:12;16.60;;;8.90;;
85662;SDS011;76094;55.506;37.950;2024-02-21T05:59:38;17.05;;;8.75;;
85662;SDS011;76094;55.506;37.950;2024-02-21T06:02:06;16.67;;;8.30;;
85662;SDS011;76094;55.506;37.950;2024-02-21T06:04:33;16.63;;;7.63;;
85662;SDS011;76094;55.506;37.950;2024-02-21T06:06:59;12.95;;;7.80;;
85662;SDS011;76094;55.506;37.950;2024-02-21T06:09:26;11.68;;;7.57;;
85662;SDS011;76094;55.506;37.950;2024-02-21T06:11:52;15.77;;;7.57;;
85662;SDS011;76094;55.506;37.950;2024-02-21T06:14:19;19.88;;;8.98;;
85662;SDS011;76094;55.506;37.950;2024-02-21T06:16:45;13.10;;;8.65;;
85662;SDS011;76094;55.506;37.950;2024-02-21T06:19:12;15.38;;;8.50;;
85662;SDS011;76094;55.506;37.950;2024-02-21T06:21:38;16.80;;;8.60;;
85662;SDS011;76094;55.506;37.950;2024-02-21T06:24:04;14.50;;;8.80;;
85662;SDS011;76094;55.506;37.950;2024-02-21T06:26:31;13.27;;;8.70;;
85662;SDS011;76094;55.506;37.950;2024-02-21T06:28:57;14.48;;;8.75;;
85662;SDS011;76094;55.506;37.950;2024-02-21T06:31:25;12.68;;;7.07;;
85662;SDS011;76094;55.506;37.950;2024-02-21T06:33:51;16.98;;;8.48;;
85662;SDS011;76094;55.506;37.950;2024-02-21T06:36:18;17.23;;;9.10;;
85662;SDS011;76094;55.506;37.950;2024-02-21T06:38:44;13.73;;;7.80;;
85662;SDS011;76094;55.506;37.950;2024-02-21T06:41:17;13.65;;;8.40;;
85662;SDS011;76094;55.506;37.950;2024-02-21T06:43:45;14.95;;;8.18;;
85662;SDS011;76094;55.506;37.950;2024-02-21T06:46:12;13.80;;;7.95;;
85662;SDS011;76094;55.506;37.950;2024-02-21T06:48:38;14.30;;;7.93;;
85662;SDS011;76094;55.506;37.950;2024-02-21T06:51:04;17.42;;;8.32;;
85662;SDS011;76094;55.506;37.950;2024-02-21T06:53:31;18.77;;;8.25;;
85662;SDS011;76094;55.506;37.950;2024-02-21T06:55:57;15.18;;;8.48;;
85662;SDS011;76094;55.506;37.950;2024-02-21T06:58:23;13.25;;;8.38;;
85662;SDS011;76094;55.506;37.950;2024-02-21T07:00:50;12.63;;;9.13;;
85662;SDS011;76094;55.506;37.950;2024-02-21T07:03:16;14.50;;;8.18;;
85662;SDS011;76094;55.506;37.950;2024-02-21T07:05:43;13.98;;;8.93;;
85662;SDS011;76094;55.506;37.950;2024-02-21T07:08:09;15.43;;;7.80;;
85662;SDS011;76094;55.506;37.950;2024-02-21T07:10:35;15.95;;;8.68;;
85662;SDS011;76094;55.506;37.950;2024-02-21T07:13:01;12.80;;;7.65;;
85662;SDS011;76094;55.506;37.950;2024-02-21T07:15:28;15.73;;;7.78;;
85662;SDS011;76094;55.506;37.950;2024-02-21T07:17:56;9.52;;;6.55;;
85662;SDS011;76094;55.506;37.950;2024-02-21T07:20:23;14.32;;;8.07;;
85662;SDS011;76094;55.506;37.950;2024-02-21T07:22:49;14.93;;;8.15;;
85662;SDS011;76094;55.506;37.950;2024-02-21T07:25:16;15.23;;;8.55;;
85662;SDS011;76094;55.506;37.950;2024-02-21T07:27:43;13.07;;;8.25;;
85662;SDS011;76094;55.506;37.950;2024-02-21T07:30:10;14.20;;;7.97;;
85662;SDS011;76094;55.506;37.950;2024-02-21T07:32:36;12.48;;;7.93;;
85662;SDS011;76094;55.506;37.950;2024-02-21T07:35:03;14.63;;;9.30;;
85662;SDS011;76094;55.506;37.950;2024-02-21T07:37:31;20.70;;;8.82;;
85662;SDS011;76094;55.506;37.950;2024-02-21T07:39:57;13.25;;;7.38;;
85662;SDS011;76094;55.506;37.950;2024-02-21T07:42:23;16.13;;;8.65;;
85662;SDS011;76094;55.506;37.950;2024-02-21T07:44:50;13.20;;;8.43;;
85662;SDS011;76094;55.506;37.950;2024-02-21T07:47:16;12.88;;;7.57;;
85662;SDS011;76094;55.506;37.950;2024-02-21T07:49:43;14.75;;;8.32;;
85662;SDS011;76094;55.506;37.950;2024-02-21T07:52:10;13.25;;;8.13;;
85662;SDS011;76094;55.506;37.950;2024-02-21T07:54:36;16.67;;;8.85;;
85662;SDS011;76094;55.506;37.950;2024-02-21T07:57:02;11.65;;;7.45;;
85662;SDS011;76094;55.506;37.950;2024-02-21T07:59:29;16.63;;;8.35;;
85662;SDS011;76094;55.506;37.950;2024-02-21T08:01:56;12.50;;;8.43;;
85662;SDS011;76094;55.506;37.950;2024-02-21T08:04:24;13.27;;;8.15;;
85662;SDS011;76094;55.506;37.950;2024-02-21T08:06:51;13.88;;;8.70;;
85662;SDS011;76094;55.506;37.950;2024-02-21T08:09:19;12.27;;;8.85;;
85662;SDS011;76094;55.506;37.950;2024-02-21T08:11:45;12.82;;;8.60;;
85662;SDS011;76094;55.506;37.950;2024-02-21T08:14:11;12.82;;;8.30;;
85662;SDS011;76094;55.506;37.950;2024-02-21T08:16:38;11.52;;;8.07;;
85662;SDS011;76094;55.506;37.950;2024-02-21T08:19:04;15.82;;;9.20;;
85662;SDS011;76094;55.506;37.950;2024-02-21T08:21:30;18.30;;;8.65;;
85662;SDS011;76094;55.506;37.950;2024-02-21T08:23:57;11.90;;;8.85;;
85662;SDS011;76094;55.506;37.950;2024-02-21T08:26:23;13.23;;;9.00;;
85662;SDS011;76094;55.506;37.950;2024-02-21T08:28:49;14.90;;;9.43;;
85662;SDS011;76094;55.506;37.950;2024-02-21T08:31:19;10.23;;;8.23;;
85662;SDS011;76094;55.506;37.950;2024-02-21T08:33:46;12.95;;;8.98;;
85662;SDS011;76094;55.506;37.950;2024-02-21T08:36:19;12.15;;;9.23;;
85662;SDS011;76094;55.506;37.950;2024-02-21T08:38:45;15.98;;;8.90;;
85662;SDS011;76094;55.506;37.950;2024-02-21T08:41:12;14.25;;;9.40;;
85662;SDS011;76094;55.506;37.950;2024-02-21T08:43:38;13.38;;;9.07;;
85662;SDS011;76094;55.506;37.950;2024-02-21T08:46:05;12.23;;;7.82;;
85662;SDS011;76094;55.506;37.950;2024-02-21T08:48:31;14.35;;;8.63;;
85662;SDS011;76094;55.506;37.950;2024-02-21T08:50:57;11.57;;;8.07;;
85662;SDS011;76094;55.506;37.950;2024-02-21T08:53:23;11.55;;;8.52;;
85662;SDS011;76094;55.506;37.950;2024-02-21T08:55:50;12.32;;;8.77;;
85662;SDS011;76094;55.506;37.950;2024-02-21T08:58:16;10.82;;;7.97;;
85662;SDS011;76094;55.506;37.950;2024-02-21T09:00:42;13.15;;;9.50;;
85662;SDS011;76094;55.506;37.950;2024-02-21T09:03:09;11.27;;;8.38;;
85662;SDS011;76094;55.506;37.950;2024-02-21T09:05:36;10.55;;;7.70;;
85662;SDS011;76094;55.506;37.950;2024-02-21T09:08:02;12.45;;;8.02;;
85662;SDS011;76094;55.506;37.950;2024-02-21T09:10:30;12.10;;;7.88;;
85662;SDS011;76094;55.506;37.950;2024-02-21T09:12:57;11.25;;;8.07;;
85662;SDS011;76094;55.506;37.950;2024-02-21T09:15:23;12.13;;;7.72;;
85662;SDS011;76094;55.506;37.950;2024-02-21T09:17:50;15.60;;;8.02;;
85662;SDS011;76094;55.506;37.950;2024-02-21T09:20:16;13.45;;;7.80;;
85662;SDS011;76094;55.506;37.950;2024-02-21T09:22:42;12.05;;;8.35;;
85662;SDS011;76094;55.506;37.950;2024-02-21T09:25:09;12.55;;;7.93;;
85662;SDS011;76094;55.506;37.950;2024-02-21T09:27:37;14.13;;;8.13;;
85662;SDS011;76094;55.506;37.950;2024-02-21T09:30:05;13.00;;;7.78;;
85662;SDS011;76094;55.506;37.950;2024-02-21T09:32:32;9.20;;;6.97;;
85662;SDS011;76094;55.506;37.950;2024-02-21T09:34:58;13.52;;;7.25;;
85662;SDS011;76094;55.506;37.950;2024-02-21T09:37:24;11.43;;;7.53;;
85662;SDS011;76094;55.506;37.950;2024-02-21T09:39:51;10.75;;;7.75;;
85662;SDS011;76094;55.506;37.950;2024-02-21T09:42:21;12.38;;;7.65;;
85662;SDS011;76094;55.506;37.950;2024-02-21T09:44:47;10.63;;;6.93;;
85662;SDS011;76094;55.506;37.950;2024-02-21T09:49:59;11.25;;;7.03;;
85662;SDS011;76094;55.506;37.950;2024-02-21T09:52:26;8.18;;;5.90;;
85662;SDS011;76094;55.506;37.950;2024-02-21T09:54:52;8.80;;;6.25;;
85662;SDS011;76094;55.506;37.950;2024-02-21T09:57:19;10.45;;;6.13;;
85662;SDS011;76094;55.506;37.950;2024-02-21T09:59:46;12.68;;;6.82;;
85662;SDS011;76094;55.506;37.950;2024-02-21T10:02:12;12.88;;;7.78;;
85662;SDS011;76094;55.506;37.950;2024-02-21T10:04:42;14.63;;;7.03;;
85662;SDS011;76094;55.506;37.950;2024-02-21T10:07:08;13.80;;;7.53;;
85662;SDS011;76094;55.506;37.950;2024-02-21T10:09:35;11.00;;;5.75;;
85662;SDS011;76094;55.506;37.950;2024-02-21T10:12:08;10.90;;;6.22;;
85662;SDS011;76094;55.506;37.950;2024-02-21T10:14:35;8.77;;;5.70;;
85662;SDS011;76094;55.506;37.950;2024-02-21T10:17:02;8.45;;;5.85;;
85662;SDS011;76094;55.506;37.950;2024-02-21T10:19:30;8.60;;;5.72;;
85662;SDS011;76094;55.506;37.950;2024-02-21T10:22:01;8.75;;;5.65;;
85662;SDS011;76094;55.506;37.950;2024-02-21T10:24:29;15.27;;;6.30;;
85662;SDS011;76094;55.506;37.950;2024-02-21T10:27:03;8.82;;;5.47;;
85662;SDS011;76094;55.506;37.950;2024-02-21T10:29:30;9.93;;;5.90;;
85662;SDS011;76094;55.506;37.950;2024-02-21T10:32:08;12.20;;;6.90;;
85662;SDS011;76094;55.506;37.950;2024-02-21T10:34:36;15.27;;;6.53;;
85662;SDS011;76094;55.506;37.950;2024-02-21T10:37:04;15.18;;;7.22;;
85662;SDS011;76094;55.506;37.950;2024-02-21T10:39:32;11.65;;;6.95;;
85662;SDS011;76094;55.506;37.950;2024-02-21T10:42:00;11.93;;;6.72;;
85662;SDS011;76094;55.506;37.950;2024-02-21T10:44:31;11.60;;;6.75;;
85662;SDS011;76094;55.506;37.950;2024-02-21T10:47:11;15.38;;;7.47;;
85662;SDS011;76094;55.506;37.950;2024-02-21T10:49:43;14.50;;;7.68;;
85662;SDS011;76094;55.506;37.950;2024-02-21T10:52:13;12.15;;;6.65;;
85662;SDS011;76094;55.506;37.950;2024-02-21T10:57:26;11.23;;;7.05;;
85662;SDS011;76094;55.506;37.950;2024-02-21T10:59:53;9.90;;;5.90;;
85662;SDS011;76094;55.506;37.950;2024-02-21T11:02:21;14.93;;;7.30;;
85662;SDS011;76094;55.506;37.950;2024-02-21T11:04:48;8.65;;;5.55;;
85662;SDS011;76094;55.506;37.950;2024-02-21T11:07:14;12.40;;;6.60;;
85662;SDS011;76094;55.506;37.950;2024-02-21T11:09:50;10.05;;;5.97;;
85662;SDS011;76094;55.506;37.950;2024-02-21T11:12:19;14.10;;;7.00;;
85662;SDS011;76094;55.506;37.950;2024-02-21T11:14:46;15.35;;;7.75;;
85662;SDS011;76094;55.506;37.950;2024-02-21T11:17:16;11.25;;;6.78;;
85662;SDS011;76094;55.506;37.950;2024-02-21T11:19:43;14.23;;;5.88;;
85662;SDS011;76094;55.506;37.950;2024-02-21T11:22:16;10.27;;;6.63;;
85662;SDS011;76094;55.506;37.950;2024-02-21T11:24:43;7.78;;;5.28;;
85662;SDS011;76094;55.506;37.950;2024-02-21T11:27:11;10.18;;;5.43;;
85662;SDS011;76094;55.506;37.950;2024-02-21T11:29:45;12.00;;;6.13;;
85662;SDS011;76094;55.506;37.950;2024-02-21T11:32:16;10.43;;;7.20;;
85662;SDS011;76094;55.506;37.950;2024-02-21T11:34:59;12.70;;;6.32;;
85662;SDS011;76094;55.506;37.950;2024-02-21T11:37:33;13.77;;;7.03;;
85662;SDS011;76094;55.506;37.950;2024-02-21T11:40:02;10.10;;;5.70;;
85662;SDS011;76094;55.506;37.950;2024-02-21T11:42:30;10.00;;;5.13;;
85662;SDS011;76094;55.506;37.950;2024-02-21T11:44:56;15.38;;;7.70;;
85662;SDS011;76094;55.506;37.950;2024-02-21T11:47:23;9.55;;;5.75;;
85662;SDS011;76094;55.506;37.950;2024-02-21T11:49:50;13.15;;;7.32;;
85662;SDS011;76094;55.506;37.950;2024-02-21T11:52:23;13.30;;;6.93;;
85662;SDS011;76094;55.506;37.950;2024-02-21T11:54:51;10.75;;;6.10;;
85662;SDS011;76094;55.506;37.950;2024-02-21T11:57:18;10.63;;;6.22;;
85662;SDS011;76094;55.506;37.950;2024-02-21T11:59:45;9.60;;;5.70;;
85662;SDS011;76094;55.506;37.950;2024-02-21T12:02:12;11.90;;;6.32;;
85662;SDS011;76094;55.506;37.950;2024-02-21T12:04:40;6.75;;;4.50;;
85662;SDS011;76094;55.506;37.950;2024-02-21T12:07:06;11.07;;;5.57;;
85662;SDS011;76094;55.506;37.950;2024-02-21T12:09:34;8.25;;;5.38;;
85662;SDS011;76094;55.506;37.950;2024-02-21T12:12:01;5.65;;;4.10;;
85662;SDS011;76094;55.506;37.950;2024-02-21T12:14:29;8.98;;;5.53;;
85662;SDS011;76094;55.506;37.950;2024-02-21T12:16:56;13.32;;;4.90;;
85662;SDS011;76094;55.506;37.950;2024-02-21T12:19:23;9.52;;;5.45;;
85662;SDS011;76094;55.506;37.950;2024-02-21T12:21:49;6.25;;;4.63;;
85662;SDS011;76094;55.506;37.950;2024-02-21T12:24:22;8.00;;;4.28;;
85662;SDS011;76094;55.506;37.950;2024-02-21T12:26:50;10.20;;;5.22;;
85662;SDS011;76094;55.506;37.950;2024-02-21T12:29:20;8.25;;;5.00;;
85662;SDS011;76094;55.506;37.950;2024-02-21T12:31:47;9.77;;;5.18;;
85662;SDS011;76094;55.506;37.950;2024-02-21T12:34:15;11.63;;;5.00;;
85662;SDS011;76094;55.506;37.950;2024-02-21T12:36:42;13.65;;;6.57;;
85662;SDS011;76094;55.506;37.950;2024-02-21T12:39:10;13.50;;;5.93;;
85662;SDS011;76094;55.506;37.950;2024-02-21T12:41:37;11.68;;;6.20;;
85662;SDS011;76094;55.506;37.950;2024-02-21T12:44:12;14.18;;;6.82;;
85662;SDS011;76094;55.506;37.950;2024-02-21T12:46:38;9.85;;;5.03;;
85662;SDS011;76094;55.506;37.950;2024-02-21T12:49:05;14.45;;;5.43;;
85662;SDS011;76094;55.506;37.950;2024-02-21T12:51:34;12.73;;;6.47;;
85662;SDS011;76094;55.506;37.950;2024-02-21T12:54:00;12.43;;;7.45;;
85662;SDS011;76094;55.506;37.950;2024-02-21T12:56:28;13.05;;;7.28;;
85662;SDS011;76094;55.506;37.950;2024-02-21T12:58:57;11.85;;;7.28;;
85662;SDS011;76094;55.506;37.950;2024-02-21T13:01:23;9.85;;;5.22;;
85662;SDS011;76094;55.506;37.950;2024-02-21T13:03:51;14.02;;;6.13;;
85662;SDS011;76094;55.506;37.950;2024-02-21T13:06:18;12.77;;;6.38;;
85662;SDS011;76094;55.506;37.950;2024-02-21T13:08:44;10.45;;;5.65;;
85662;SDS011;76094;55.506;37.950;2024-02-21T13:11:12;8.98;;;5.28;;
85662;SDS011;76094;55.506;37.950;2024-02-21T13:13:38;12.30;;;5.20;;
85662;SDS011;76094;55.506;37.950;2024-02-21T13:16:05;10.48;;;6.05;;
85662;SDS011;76094;55.506;37.950;2024-02-21T13:18:31;13.75;;;5.90;;
85662;SDS011;76094;55.506;37.950;2024-02-21T13:20:58;6.88;;;4.65;;
85662;SDS011;76094;55.506;37.950;2024-02-21T13:23:24;18.40;;;5.22;;
85662;SDS011;76094;55.506;37.950;2024-02-21T13:25:51;11.02;;;5.82;;
85662;SDS011;76094;55.506;37.950;2024-02-21T13:28:17;11.90;;;6.07;;
85662;SDS011;76094;55.506;37.950;2024-02-21T13:30:43;11.77;;;6.63;;
85662;SDS011;76094;55.506;37.950;2024-02-21T13:33:10;14.18;;;5.32;;
85662;SDS011;76094;55.506;37.950;2024-02-21T13:35:37;12.80;;;5.88;;
85662;SDS011;76094;55.506;37.950;2024-02-21T13:38:04;17.10;;;5.80;;
85662;SDS011;76094;55.506;37.950;2024-02-21T13:40:31;9.05;;;4.93;;
85662;SDS011;76094;55.506;37.950;2024-02-21T13:42:57;14.65;;;5.38;;
85662;SDS011;76094;55.506;37.950;2024-02-21T13:45:24;9.73;;;5.47;;
85662;SDS011;76094;55.506;37.950;2024-02-21T13:47:50;10.50;;;5.68;;
85662;SDS011;76094;55.506;37.950;2024-02-21T13:50:16;12.00;;;5.30;;
85662;SDS011;76094;55.506;37.950;2024-02-21T13:52:43;10.57;;;5.03;;
85662;SDS011;76094;55.506;37.950;2024-02-21T13:55:09;7.13;;;4.20;;
85662;SDS011;76094;55.506;37.950;2024-02-21T13:57:36;15.48;;;6.65;;
85662;SDS011;76094;55.506;37.950;2024-02-21T14:00:03;15.23;;;6.90;;
85662;SDS011;76094;55.506;37.950;2024-02-21T14:02:39;13.98;;;6.32;;
85662;SDS011;76094;55.506;37.950;2024-02-21T14:05:05;12.82;;;5.65;;
85662;SDS011;76094;55.506;37.950;2024-02-21T14:07:32;21.23;;;7.50;;
85662;SDS011;76094;55.506;37.950;2024-02-21T14:10:01;13.07;;;5.85;;
85662;SDS011;76094;55.506;37.950;2024-02-21T14:12:29;13.73;;;5.15;;
85662;SDS011;76094;55.506;37.950;2024-02-21T14:14:55;10.52;;;5.28;;
85662;SDS011;76094;55.506;37.950;2024-02-21T14:17:24;11.05;;;5.32;;
85662;SDS011;76094;55.506;37.950;2024-02-21T14:19:50;9.82;;;4.63;;
85662;SDS011;76094;55.506;37.950;2024-02-21T14:22:17;11.32;;;5.30;;
85662;SDS011;76094;55.506;37.950;2024-02-21T14:24:44;7.90;;;5.22;;
85662;SDS011;76094;55.506;37.950;2024-02-21T14:27:11;12.68;;;5.85;;
85662;SDS011;76094;55.506;37.950;2024-02-21T14:29:38;10.93;;;5.45;;
85662;SDS011;76094;55.506;37.950;2024-02-21T14:32:05;12.32;;;5.78;;
85662;SDS011;76094;55.506;37.950;2024-02-21T14:34:31;7.70;;;5.25;;
85662;SDS011;76094;55.506;37.950;2024-02-21T14:36:58;10.68;;;6.10;;
85662;SDS011;76094;55.506;37.950;2024-02-21T14:39:24;12.25;;;5.70;;
85662;SDS011;76094;55.506;37.950;2024-02-21T14:41:50;16.58;;;5.90;;
85662;SDS011;76094;55.506;37.950;2024-02-21T14:44:17;14.48;;;6.07;;
85662;SDS011;76094;55.506;37.950;2024-02-21T14:46:43;11.65;;;6.20;;
85662;SDS011;76094;55.506;37.950;2024-02-21T14:49:10;13.20;;;5.72;;
85662;SDS011;76094;55.506;37.950;2024-02-21T14:51:37;15.68;;;6.90;;
85662;SDS011;76094;55.506;37.950;2024-02-21T14:54:03;12.65;;;6.15;;
85662;SDS011;76094;55.506;37.950;2024-02-21T14:56:29;22.10;;;6.50;;
85662;SDS011;76094;55.506;37.950;2024-02-21T14:58:57;15.88;;;6.40;;
85662;SDS011;76094;55.506;37.950;2024-02-21T15:01:24;17.95;;;5.90;;
85662;SDS011;76094;55.506;37.950;2024-02-21T15:03:50;11.93;;;6.45;;
85662;SDS011;76094;55.506;37.950;2024-02-21T15:06:17;18.33;;;7.20;;
85662;SDS011;76094;55.506;37.950;2024-02-21T15:08:43;18.60;;;7.43;;
85662;SDS011;76094;55.506;37.950;2024-02-21T15:11:10;15.55;;;7.47;;
85662;SDS011;76094;55.506;37.950;2024-02-21T15:13:36;18.15;;;8.15;;
85662;SDS011;76094;55.506;37.950;2024-02-21T15:16:03;13.27;;;7.05;;
85662;SDS011;76094;55.506;37.950;2024-02-21T15:18:30;11.40;;;4.55;;
85662;SDS011;76094;55.506;37.950;2024-02-21T15:20:59;14.45;;;6.97;;
85662;SDS011;76094;55.506;37.950;2024-02-21T15:23:26;16.70;;;6.47;;
85662;SDS011;76094;55.506;37.950;2024-02-21T15:25:52;16.23;;;7.13;;
85662;SDS011;76094;55.506;37.950;2024-02-21T15:28:18;23.02;;;7.50;;
85662;SDS011;76094;55.506;37.950;2024-02-21T15:30:45;9.13;;;5.13;;
85662;SDS011;76094;55.506;37.950;2024-02-21T15:33:12;18.02;;;6.63;;
85662;SDS011;76094;55.506;37.950;2024-02-21T15:35:38;10.88;;;6.35;;
85662;SDS011;76094;55.506;37.950;2024-02-21T15:38:05;18.95;;;7.30;;
85662;SDS011;76094;55.506;37.950;2024-02-21T15:40:31;14.60;;;6.88;;
85662;SDS011;76094;55.506;37.950;2024-02-21T15:43:02;21.25;;;8.45;;
85662;SDS011;76094;55.506;37.950;2024-02-21T15:45:28;21.98;;;7.75;;
85662;SDS011;76094;55.506;37.950;2024-02-21T15:47:55;22.70;;;8.85;;
85662;SDS011;76094;55.506;37.950;2024-02-21T15:50:21;28.77;;;9.82;;
85662;SDS011;76094;55.506;37.950;2024-02-21T15:52:47;27.60;;;10.88;;
85662;SDS011;76094;55.506;37.950;2024-02-21T15:55:14;17.02;;;8.30;;
85662;SDS011;76094;55.506;37.950;2024-02-21T15:57:40;18.98;;;7.00;;
85662;SDS011;76094;55.506;37.950;2024-02-21T16:00:08;14.20;;;6.45;;
85662;SDS011;76094;55.506;37.950;2024-02-21T16:02:39;21.75;;;7.18;;
85662;SDS011;76094;55.506;37.950;2024-02-21T16:05:10;13.05;;;6.90;;
85662;SDS011;76094;55.506;37.950;2024-02-21T16:07:37;14.02;;;7.68;;
85662;SDS011;76094;55.506;37.950;2024-02-21T16:10:07;15.43;;;6.15;;
85662;SDS011;76094;55.506;37.950;2024-02-21T16:12:33;10.77;;;6.13;;
85662;SDS011;76094;55.506;37.950;2024-02-21T16:15:00;23.95;;;7.82;;
85662;SDS011;76094;55.506;37.950;2024-02-21T16:17:26;21.73;;;7.53;;
85662;SDS011;76094;55.506;37.950;2024-02-21T16:19:52;17.92;;;7.88;;
85662;SDS011;76094;55.506;37.950;2024-02-21T16:22:19;11.63;;;6.00;;
85662;SDS011;76094;55.506;37.950;2024-02-21T16:24:45;15.10;;;7.50;;
85662;SDS011;76094;55.506;37.950;2024-02-21T16:27:12;17.00;;;7.43;;
85662;SDS011;76094;55.506;37.950;2024-02-21T16:29:38;14.35;;;7.75;;
85662;SDS011;76094;55.506;37.950;2024-02-21T16:32:05;13.38;;;7.30;;
85662;SDS011;76094;55.506;37.950;2024-02-21T16:34:34;16.60;;;7.63;;
85662;SDS011;76094;55.506;37.950;2024-02-21T16:37:01;15.40;;;6.32;;
85662;SDS011;76094;55.506;37.950;2024-02-21T16:39:28;13.63;;;6.05;;
85662;SDS011;76094;55.506;37.950;2024-02-21T16:41:55;11.13;;;5.90;;
85662;SDS011;76094;55.506;37.950;2024-02-21T16:44:26;12.20;;;6.75;;
85662;SDS011;76094;55.506;37.950;2024-02-21T16:46:57;16.00;;;7.47;;
85662;SDS011;76094;55.506;37.950;2024-02-21T16:49:23;13.27;;;7.50;;
85662;SDS011;76094;55.506;37.950;2024-02-21T16:51:51;13.50;;;6.88;;
85662;SDS011;76094;55.506;37.950;2024-02-21T16:54:22;14.32;;;6.03;;
85662;SDS011;76094;55.506;37.950;2024-02-21T16:56:51;11.13;;;6.25;;
85662;SDS011;76094;55.506;37.950;2024-02-21T16:59:17;15.00;;;7.53;;
85662;SDS011;76094;55.506;37.950;2024-02-21T17:01:44;9.43;;;5.40;;
85662;SDS011;76094;55.506;37.950;2024-02-21T17:04:11;15.23;;;7.13;;
85662;SDS011;76094;55.506;37.950;2024-02-21T17:06:37;13.63;;;7.78;;
85662;SDS011;76094;55.506;37.950;2024-02-21T17:09:03;12.93;;;7.13;;
85662;SDS011;76094;55.506;37.950;2024-02-21T17:11:30;11.68;;;6.88;;
85662;SDS011;76094;55.506;37.950;2024-02-21T17:13:56;14.70;;;7.72;;
85662;SDS011;76094;55.506;37.950;2024-02-21T17:16:22;16.13;;;8.15;;
85662;SDS011;76094;55.506;37.950;2024-02-21T17:18:49;12.43;;;6.53;;
85662;SDS011;76094;55.506;37.950;2024-02-21T17:21:15;12.35;;;7.43;;
85662;SDS011;76094;55.506;37.950;2024-02-21T17:23:42;18.45;;;7.32;;
85662;SDS011;76094;55.506;37.950;2024-02-21T17:26:08;13.65;;;6.18;;
85662;SDS011;76094;55.506;37.950;2024-02-21T17:28:34;13.05;;;7.28;;
85662;SDS011;76094;55.506;37.950;2024-02-21T17:31:02;10.85;;;6.65;;
85662;SDS011;76094;55.506;37.950;2024-02-21T17:33:28;12.50;;;7.25;;
85662;SDS011;76094;55.506;37.950;2024-02-21T17:35:54;13.65;;;7.63;;
85662;SDS011;76094;55.506;37.950;2024-02-21T17:38:22;15.93;;;9.25;;
85662;SDS011;76094;55.506;37.950;2024-02-21T17:40:49;15.93;;;9.07;;
85662;SDS011;76094;55.506;37.950;2024-02-21T17:43:16;17.80;;;8.73;;
85662;SDS011;76094;55.506;37.950;2024-02-21T17:45:42;11.65;;;7.13;;
85662;SDS011;76094;55.506;37.950;2024-02-21T17:48:08;15.88;;;7.90;;
85662;SDS011;76094;55.506;37.950;2024-02-21T17:50:35;16.58;;;8.82;;
85662;SDS011;76094;55.506;37.950;2024-02-21T17:53:01;14.98;;;8.18;;
85662;SDS011;76094;55.506;37.950;2024-02-21T17:55:28;28.92;;;13.82;;
85662;SDS011;76094;55.506;37.950;2024-02-21T17:57:55;18.23;;;10.07;;
85662;SDS011;76094;55.506;37.950;2024-02-21T18:00:21;15.95;;;8.85;;
85662;SDS011;76094;55.506;37.950;2024-02-21T18:02:48;15.38;;;8.05;;
85662;SDS011;76094;55.506;37.950;2024-02-21T18:05:15;12.23;;;6.90;;
85662;SDS011;76094;55.506;37.950;2024-02-21T18:07:45;18.50;;;9.23;;
85662;SDS011;76094;55.506;37.950;2024-02-21T18:10:11;17.73;;;9.35;;
85662;SDS011;76094;55.506;37.950;2024-02-21T18:12:38;17.73;;;7.78;;
85662;SDS011;76094;55.506;37.950;2024-02-21T18:15:04;19.08;;;9.43;;
85662;SDS011;76094;55.506;37.950;2024-02-21T18:17:31;14.55;;;8.35;;
85662;SDS011;76094;55.506;37.950;2024-02-21T18:19:59;18.23;;;7.65;;
85662;SDS011;76094;55.506;37.950;2024-02-21T18:22:25;17.02;;;8.32;;
85662;SDS011;76094;55.506;37.950;2024-02-21T18:24:52;17.40;;;9.57;;
85662;SDS011;76094;55.506;37.950;2024-02-21T18:27:19;16.30;;;8.57;;
85662;SDS011;76094;55.506;37.950;2024-02-21T18:29:45;20.13;;;10.55;;
85662;SDS011;76094;55.506;37.950;2024-02-21T18:32:11;16.20;;;9.23;;